Time,TemperatureF,DewpointF,PressureIn,WindDirection,WindDirectionDegrees,WindSpeedMPH,WindSpeedGustMPH,Humidity,HourlyPrecipIn,Conditions,Clouds,dailyrainin,SoftwareType,DateUTC
2013-03-18 00:00:00,64.0,56.7,17.72,South,185,0.0,0.0,77,0.00,,,0.00,VWS V14.01,2013-03-18 04:00:00,
2013-03-18 00:01:00,64.0,56.7,17.72,South,185,0.0,0.0,77,0.00,,,0.00,VWS V14.01,2013-03-18 04:01:00,
2013-03-18 00:02:00,63.9,56.5,17.72,South,185,0.0,0.0,77,0.00,,,0.00,VWS V14.01,2013-03-18 04:02:00,
2013-03-18 00:03:00,63.9,56.5,17.72,South,185,0.0,0.0,77,0.00,,,0.00,VWS V14.01,2013-03-18 04:03:00,
2013-03-18 00:09:00,63.7,56.7,17.72,South,185,0.0,0.0,78,0.00,,,0.00,VWS V14.01,2013-03-18 04:09:00,
2013-03-18 00:15:00,63.7,56.7,17.72,South,185,0.0,0.0,78,0.00,,,0.00,VWS V14.01,2013-03-18 04:15:00,
2013-03-18 00:20:00,63.5,56.5,17.72,South,185,0.0,0.0,78,0.00,,,0.00,VWS V14.01,2013-03-18 04:20:00,
2013-03-18 00:25:00,63.5,56.5,17.72,South,185,0.0,0.0,78,0.00,,,0.00,VWS V14.01,2013-03-18 04:25:00,
2013-03-18 00:30:00,63.5,56.5,17.72,South,185,0.0,0.0,78,0.00,,,0.00,VWS V14.01,2013-03-18 04:30:00,
2013-03-18 00:36:00,63.5,56.5,17.72,South,185,0.0,0.0,78,0.00,,,0.00,VWS V14.01,2013-03-18 04:36:00,
2013-03-18 00:42:00,63.5,56.5,17.72,South,185,0.0,0.0,78,0.00,,,0.00,VWS V14.01,2013-03-18 04:42:00,
2013-03-18 00:47:00,63.5,56.5,17.72,South,185,0.0,0.0,78,0.00,,,0.00,VWS V14.01,2013-03-18 04:47:00,
2013-03-18 00:53:00,63.5,56.5,17.72,South,185,0.0,0.0,78,0.00,,,0.00,VWS V14.01,2013-03-18 04:53:00,
2013-03-18 00:58:00,63.5,56.5,17.72,South,185,0.0,0.0,78,0.00,,,0.00,VWS V14.01,2013-03-18 04:58:00,
2013-03-18 01:04:00,63.5,56.9,17.72,South,185,0.0,0.0,79,0.00,,,0.00,VWS V14.01,2013-03-18 05:04:00,
2013-03-18 01:09:00,63.5,56.9,17.72,South,185,0.0,0.0,79,0.00,,,0.00,VWS V14.01,2013-03-18 05:09:00,
2013-03-18 01:14:00,63.5,56.9,17.72,South,185,0.0,0.0,79,0.00,,,0.00,VWS V14.01,2013-03-18 05:14:00,
2013-03-18 01:20:00,63.5,56.9,17.72,South,185,0.0,0.0,79,0.00,,,0.00,VWS V14.01,2013-03-18 05:20:00,
2013-03-18 01:25:00,63.7,57.0,17.72,South,185,0.0,0.0,79,0.00,,,0.00,VWS V14.01,2013-03-18 05:25:00,
2013-03-18 01:31:00,63.7,57.0,17.72,South,185,0.0,0.0,79,0.00,,,0.00,VWS V14.01,2013-03-18 05:31:00,
2013-03-18 01:36:00,63.7,57.0,17.72,South,185,0.0,0.0,79,0.00,,,0.00,VWS V14.01,2013-03-18 05:36:00,
2013-03-18 01:43:00,63.5,56.9,17.72,South,185,0.0,0.0,79,0.00,,,0.00,VWS V14.01,2013-03-18 05:43:00,
2013-03-18 01:48:00,63.7,57.0,17.72,South,185,0.0,0.0,79,0.00,,,0.00,VWS V14.01,2013-03-18 05:48:00,
2013-03-18 01:53:00,63.7,57.0,17.72,South,185,0.0,0.0,79,0.00,,,0.00,VWS V14.01,2013-03-18 05:53:00,
2013-03-18 01:59:00,63.7,57.4,17.72,South,185,0.0,0.0,80,0.00,,,0.00,VWS V14.01,2013-03-18 05:59:00,
2013-03-18 02:04:00,63.7,57.4,17.72,South,185,0.0,0.0,80,0.00,,,0.00,VWS V14.01,2013-03-18 06:04:00,
2013-03-18 02:10:00,63.7,57.4,17.72,South,185,0.0,0.0,80,0.00,,,0.00,VWS V14.01,2013-03-18 06:10:00,
2013-03-18 02:15:00,63.9,57.6,17.72,SSE,152,0.0,0.0,80,0.00,,,0.00,VWS V14.01,2013-03-18 06:15:00,
2013-03-18 02:20:00,63.9,57.6,17.72,SSE,149,0.0,0.0,80,0.00,,,0.00,VWS V14.01,2013-03-18 06:20:00,
2013-03-18 02:25:00,63.7,57.4,17.72,SSE,149,0.0,0.0,80,0.00,,,0.00,VWS V14.01,2013-03-18 06:25:00,
2013-03-18 02:31:00,63.7,57.4,17.72,SSE,149,0.0,0.0,80,0.00,,,0.00,VWS V14.01,2013-03-18 06:31:00,
2013-03-18 02:37:00,63.7,57.4,17.72,SSE,149,0.0,0.0,80,0.00,,,0.00,VWS V14.01,2013-03-18 06:37:00,
2013-03-18 02:42:00,63.9,57.6,17.72,SSE,149,0.0,0.0,80,0.00,,,0.00,VWS V14.01,2013-03-18 06:42:00,
2013-03-18 02:48:00,63.9,57.6,17.72,ESE,117,0.0,0.0,80,0.00,,,0.00,VWS V14.01,2013-03-18 06:48:00,
2013-03-18 02:53:00,64.0,57.8,17.72,ESE,117,0.0,0.0,80,0.00,,,0.00,VWS V14.01,2013-03-18 06:53:00,
2013-03-18 02:59:00,64.0,57.8,17.72,ESE,102,0.0,0.0,80,0.00,,,0.00,VWS V14.01,2013-03-18 06:59:00,
2013-03-18 03:04:00,64.2,57.9,17.72,East,81,0.0,0.0,80,0.00,,,0.00,VWS V14.01,2013-03-18 07:04:00,
2013-03-18 03:10:00,64.2,57.9,17.72,SE,124,0.0,0.0,80,0.00,,,0.00,VWS V14.01,2013-03-18 07:10:00,
2013-03-18 03:16:00,64.4,58.1,17.72,SE,127,0.0,0.0,80,0.00,,,0.00,VWS V14.01,2013-03-18 07:16:00,
2013-03-18 03:22:00,64.4,58.1,17.72,ESE,108,0.0,3.1,80,0.00,,,0.00,VWS V14.01,2013-03-18 07:22:00,
2013-03-18 03:27:00,64.6,58.3,17.72,SE,131,3.1,3.1,80,0.00,,,0.00,VWS V14.01,2013-03-18 07:27:00,
2013-03-18 03:32:00,64.6,58.3,17.72,ESE,120,0.0,0.0,80,0.00,,,0.00,VWS V14.01,2013-03-18 07:32:00,
2013-03-18 03:38:00,64.6,58.3,17.72,ESE,110,0.0,0.0,80,0.00,,,0.00,VWS V14.01,2013-03-18 07:38:00,
2013-03-18 03:44:00,64.8,58.5,17.72,South,172,0.0,0.0,80,0.00,,,0.00,VWS V14.01,2013-03-18 07:44:00,
2013-03-18 03:49:00,64.8,58.5,17.72,SSW,199,0.0,0.0,80,0.00,,,0.00,VWS V14.01,2013-03-18 07:49:00,
2013-03-18 03:55:00,64.8,58.5,17.72,South,184,0.0,3.6,80,0.00,,,0.00,VWS V14.01,2013-03-18 07:55:00,
2013-03-18 04:00:00,64.8,58.5,17.72,ESE,117,0.0,3.1,80,0.00,,,0.00,VWS V14.01,2013-03-18 08:00:00,
2013-03-18 04:06:00,64.9,58.6,17.72,SE,133,0.0,0.0,80,0.00,,,0.00,VWS V14.01,2013-03-18 08:06:00,
2013-03-18 04:11:00,64.9,58.6,17.72,SSE,147,0.0,0.0,80,0.00,,,0.00,VWS V14.01,2013-03-18 08:11:00,
2013-03-18 04:17:00,65.1,59.2,17.72,ESE,122,0.0,2.7,81,0.00,,,0.00,VWS V14.01,2013-03-18 08:17:00,
2013-03-18 04:23:00,65.1,59.2,17.72,South,187,0.0,4.0,81,0.00,,,0.00,VWS V14.01,2013-03-18 08:23:00,
2013-03-18 04:29:00,65.1,59.2,17.72,ESE,122,0.0,3.6,81,0.00,,,0.00,VWS V14.01,2013-03-18 08:29:00,
2013-03-18 04:34:00,65.3,59.3,17.72,NE,37,0.0,2.7,81,0.00,,,0.00,VWS V14.01,2013-03-18 08:34:00,
2013-03-18 04:39:00,65.3,59.3,17.72,East,100,2.7,2.7,81,0.00,,,0.00,VWS V14.01,2013-03-18 08:39:00,
2013-03-18 04:44:00,65.3,59.0,17.72,SSE,161,2.2,2.7,80,0.00,,,0.00,VWS V14.01,2013-03-18 08:44:00,
2013-03-18 04:49:00,65.3,59.0,17.72,ESE,117,0.0,0.0,80,0.00,,,0.00,VWS V14.01,2013-03-18 08:49:00,
2013-03-18 04:55:00,65.3,59.0,17.72,ESE,120,0.0,0.0,80,0.00,,,0.00,VWS V14.01,2013-03-18 08:55:00,
2013-03-18 05:01:00,65.3,59.0,17.72,SE,138,0.0,0.0,80,0.00,,,0.00,VWS V14.01,2013-03-18 09:01:00,
2013-03-18 05:07:00,65.3,59.0,17.72,ESE,114,2.2,3.6,80,0.00,,,0.00,VWS V14.01,2013-03-18 09:07:00,
2013-03-18 05:12:00,65.5,59.5,17.72,East,93,0.0,0.0,81,0.00,,,0.00,VWS V14.01,2013-03-18 09:12:00,
2013-03-18 05:17:00,65.5,59.2,17.72,ESE,117,0.0,0.0,80,0.00,,,0.00,VWS V14.01,2013-03-18 09:17:00,
2013-03-18 05:23:00,65.5,59.5,17.72,East,86,0.0,0.0,81,0.00,,,0.00,VWS V14.01,2013-03-18 09:23:00,
2013-03-18 05:28:00,65.5,59.5,17.72,ESE,106,0.0,0.0,81,0.00,,,0.00,VWS V14.01,2013-03-18 09:28:00,
2013-03-18 05:33:00,65.5,59.5,17.72,ESE,105,4.0,4.0,81,0.00,,,0.00,VWS V14.01,2013-03-18 09:33:00,
2013-03-18 05:38:00,65.5,59.5,17.72,ESE,106,0.0,4.5,81,0.00,,,0.00,VWS V14.01,2013-03-18 09:38:00,
2013-03-18 05:44:00,65.5,59.5,17.72,ESE,109,0.0,0.0,81,0.00,,,0.00,VWS V14.01,2013-03-18 09:44:00,
2013-03-18 05:49:00,65.5,59.5,17.72,ESE,119,0.0,0.0,81,0.00,,,0.00,VWS V14.01,2013-03-18 09:49:00,
2013-03-18 05:54:00,65.5,59.5,17.72,SE,127,0.0,4.0,81,0.00,,,0.00,VWS V14.01,2013-03-18 09:54:00,
2013-03-18 06:00:00,65.5,59.5,17.72,South,185,3.6,4.9,81,0.00,,,0.00,VWS V14.01,2013-03-18 10:00:00,
2013-03-18 06:05:00,65.7,59.7,17.72,ESE,122,0.0,4.0,81,0.00,,,0.00,VWS V14.01,2013-03-18 10:05:00,
2013-03-18 06:10:00,65.7,59.7,17.72,SSW,203,0.0,0.0,81,0.00,,,0.00,VWS V14.01,2013-03-18 10:10:00,
2013-03-18 06:16:00,65.7,59.7,17.72,ESE,116,0.0,3.1,81,0.00,,,0.00,VWS V14.01,2013-03-18 10:16:00,
2013-03-18 06:22:00,65.7,59.7,17.72,SE,127,0.0,0.0,81,0.00,,,0.00,VWS V14.01,2013-03-18 10:22:00,
2013-03-18 06:28:00,65.7,60.0,17.72,East,92,0.0,3.6,82,0.00,,,0.00,VWS V14.01,2013-03-18 10:28:00,
2013-03-18 06:33:00,65.7,60.0,17.72,SE,140,0.0,0.0,82,0.00,,,0.00,VWS V14.01,2013-03-18 10:33:00,
2013-03-18 06:38:00,65.7,60.0,17.72,ESE,106,3.6,3.6,82,0.00,,,0.00,VWS V14.01,2013-03-18 10:38:00,
2013-03-18 06:43:00,65.7,60.0,17.72,ESE,120,3.6,4.9,82,0.00,,,0.00,VWS V14.01,2013-03-18 10:43:00,
2013-03-18 06:48:00,65.7,60.0,17.72,ESE,108,0.0,0.0,82,0.00,,,0.00,VWS V14.01,2013-03-18 10:48:00,
2013-03-18 06:54:00,65.7,60.0,17.72,SSE,148,0.0,3.1,82,0.00,,,0.00,VWS V14.01,2013-03-18 10:54:00,
2013-03-18 06:59:00,65.7,60.0,17.72,East,98,5.4,5.4,82,0.00,,,0.00,VWS V14.01,2013-03-18 10:59:00,
2013-03-18 07:04:00,65.7,60.0,17.72,ESE,117,4.0,4.0,82,0.00,,,0.00,VWS V14.01,2013-03-18 11:04:00,
2013-03-18 07:10:00,65.7,60.0,17.72,ESE,109,0.0,4.9,82,0.00,,,0.00,VWS V14.01,2013-03-18 11:10:00,
2013-03-18 07:15:00,65.7,60.4,17.72,SE,128,0.0,0.0,83,0.00,,,0.00,VWS V14.01,2013-03-18 11:15:00,
2013-03-18 07:21:00,65.7,60.4,17.72,SE,124,4.0,4.0,83,0.00,,,0.00,VWS V14.01,2013-03-18 11:21:00,
2013-03-18 07:26:00,65.7,60.4,17.72,SSE,157,0.0,0.0,83,0.00,,,0.00,VWS V14.01,2013-03-18 11:26:00,
2013-03-18 07:32:00,65.7,60.4,17.72,ESE,111,0.0,0.0,83,0.00,,,0.00,VWS V14.01,2013-03-18 11:32:00,
2013-03-18 07:38:00,65.5,60.2,17.72,South,172,0.0,0.0,83,0.00,,,0.00,VWS V14.01,2013-03-18 11:38:00,
2013-03-18 07:43:00,65.7,60.7,17.72,SSE,168,0.0,0.0,84,0.00,,,0.00,VWS V14.01,2013-03-18 11:43:00,
2013-03-18 07:49:00,65.7,60.7,17.72,ENE,60,0.0,0.0,84,0.00,,,0.00,VWS V14.01,2013-03-18 11:49:00,
2013-03-18 07:54:00,65.8,60.9,17.72,ESE,106,0.0,0.0,84,0.00,,,0.00,VWS V14.01,2013-03-18 11:54:00,
2013-03-18 07:59:00,65.8,60.9,17.72,East,86,0.0,0.0,84,0.00,,,0.00,VWS V14.01,2013-03-18 11:59:00,
2013-03-18 08:04:00,66.0,61.4,17.72,East,94,0.0,0.0,85,0.00,,,0.00,VWS V14.01,2013-03-18 12:04:00,
2013-03-18 08:09:00,66.2,61.2,17.72,ESE,107,0.0,0.0,84,0.00,,,0.00,VWS V14.01,2013-03-18 12:09:00,
2013-03-18 08:14:00,66.2,61.2,17.72,SSE,151,0.0,0.0,84,0.00,,,0.00,VWS V14.01,2013-03-18 12:14:00,
2013-03-18 08:19:00,66.2,61.2,17.72,SSE,168,3.6,3.6,84,0.00,,,0.00,VWS V14.01,2013-03-18 12:19:00,
2013-03-18 08:24:00,66.4,61.4,17.72,ESE,109,3.1,4.0,84,0.00,,,0.00,VWS V14.01,2013-03-18 12:24:00,
2013-03-18 08:29:00,66.6,61.6,17.72,South,173,5.8,5.8,84,0.00,,,0.00,VWS V14.01,2013-03-18 12:29:00,
2013-03-18 08:35:00,66.7,61.8,17.72,SSW,208,0.0,0.0,84,0.00,,,0.00,VWS V14.01,2013-03-18 12:35:00,
2013-03-18 08:40:00,66.9,61.9,17.72,SSE,150,0.0,3.6,84,0.00,,,0.00,VWS V14.01,2013-03-18 12:40:00,
2013-03-18 08:45:00,67.1,61.8,17.72,SSE,156,0.0,2.7,83,0.00,,,0.00,VWS V14.01,2013-03-18 12:45:00,
2013-03-18 08:51:00,67.5,62.5,17.72,ESE,116,0.0,0.0,84,0.00,,,0.00,VWS V14.01,2013-03-18 12:51:00,
2013-03-18 08:56:00,67.6,62.3,17.72,SSE,162,0.0,4.0,83,0.00,,,0.00,VWS V14.01,2013-03-18 12:56:00,
2013-03-18 09:02:00,67.8,62.5,17.72,ESE,114,0.0,3.6,83,0.00,,,0.00,VWS V14.01,2013-03-18 13:02:00,
2013-03-18 09:07:00,68.0,62.3,17.72,ESE,115,0.0,0.0,82,0.00,,,0.00,VWS V14.01,2013-03-18 13:07:00,
2013-03-18 09:12:00,68.0,62.3,17.72,East,92,0.0,4.9,82,0.00,,,0.00,VWS V14.01,2013-03-18 13:12:00,
2013-03-18 09:17:00,68.4,62.7,17.72,South,171,3.1,4.5,82,0.00,,,0.00,VWS V14.01,2013-03-18 13:17:00,
2013-03-18 09:23:00,68.9,63.2,17.72,ENE,77,0.0,4.0,82,0.00,,,0.00,VWS V14.01,2013-03-18 13:23:00,
2013-03-18 09:28:00,69.4,63.4,17.72,SSW,212,6.3,6.3,81,0.00,,,0.00,VWS V14.01,2013-03-18 13:28:00,
2013-03-18 09:34:00,70.0,63.5,17.72,SE,134,3.1,4.0,80,0.00,,,0.00,VWS V14.01,2013-03-18 13:34:00,
2013-03-18 09:40:00,70.5,64.1,17.72,SE,125,3.6,6.3,80,0.00,,,0.00,VWS V14.01,2013-03-18 13:40:00,
2013-03-18 09:45:00,70.7,63.9,17.72,SSE,153,5.4,6.3,79,0.00,,,0.00,VWS V14.01,2013-03-18 13:45:00,
2013-03-18 09:51:00,71.1,64.2,17.72,ESE,105,0.0,2.2,79,0.00,,,0.00,VWS V14.01,2013-03-18 13:51:00,
2013-03-18 09:56:00,71.4,64.2,17.72,SE,138,3.1,5.8,78,0.00,,,0.00,VWS V14.01,2013-03-18 13:56:00,
2013-03-18 10:02:00,71.4,64.2,17.72,ESE,103,7.2,7.2,78,0.00,,,0.00,VWS V14.01,2013-03-18 14:02:00,
2013-03-18 10:08:00,71.6,64.4,17.72,SE,125,0.0,5.8,78,0.00,,,0.00,VWS V14.01,2013-03-18 14:08:00,
2013-03-18 10:13:00,71.4,64.2,17.72,SE,127,3.6,5.8,78,0.00,,,0.00,VWS V14.01,2013-03-18 14:13:00,
2013-03-18 10:18:00,71.6,64.4,17.72,SE,130,3.1,5.8,78,0.00,,,0.00,VWS V14.01,2013-03-18 14:18:00,
2013-03-18 10:23:00,71.6,64.4,17.72,SSW,202,5.4,7.2,78,0.00,,,0.00,VWS V14.01,2013-03-18 14:23:00,
2013-03-18 10:28:00,71.6,64.8,17.72,South,187,2.7,3.1,79,0.00,,,0.00,VWS V14.01,2013-03-18 14:28:00,
2013-03-18 10:34:00,72.5,65.6,17.72,SSE,163,8.3,8.7,79,0.00,,,0.00,VWS V14.01,2013-03-18 14:34:00,
2013-03-18 10:40:00,73.4,65.8,17.72,SE,126,4.9,9.6,77,0.00,,,0.00,VWS V14.01,2013-03-18 14:40:00,
2013-03-18 10:45:00,74.1,66.1,17.72,SSW,202,0.0,8.1,76,0.00,,,0.00,VWS V14.01,2013-03-18 14:45:00,
2013-03-18 10:51:00,74.7,65.8,17.72,SE,127,8.3,8.3,74,0.00,,,0.00,VWS V14.01,2013-03-18 14:51:00,
2013-03-18 10:56:00,74.5,65.7,17.72,SE,135,6.3,6.3,74,0.00,,,0.00,VWS V14.01,2013-03-18 14:56:00,
2013-03-18 11:01:00,74.7,65.8,17.72,SE,124,0.0,4.9,74,0.00,,,0.00,VWS V14.01,2013-03-18 15:01:00,
2013-03-18 11:07:00,75.2,66.0,17.72,SE,129,6.3,8.1,73,0.00,,,0.00,VWS V14.01,2013-03-18 15:07:00,
2013-03-18 11:12:00,75.7,66.1,17.72,ESE,104,4.0,7.6,72,0.00,,,0.00,VWS V14.01,2013-03-18 15:12:00,
2013-03-18 11:18:00,76.6,66.1,17.72,SSW,212,8.7,8.7,70,0.00,,,0.00,VWS V14.01,2013-03-18 15:18:00,
2013-03-18 11:23:00,77.0,66.5,17.72,SW,215,6.3,6.3,70,0.00,,,0.00,VWS V14.01,2013-03-18 15:23:00,
2013-03-18 11:29:00,77.2,66.2,17.72,SSW,202,3.1,8.3,69,0.00,,,0.00,VWS V14.01,2013-03-18 15:29:00,
2013-03-18 11:34:00,77.4,66.4,17.72,East,97,5.4,6.7,69,0.00,,,0.00,VWS V14.01,2013-03-18 15:34:00,
2013-03-18 11:39:00,77.4,66.4,17.72,SW,227,4.0,10.1,69,0.00,,,0.00,VWS V14.01,2013-03-18 15:39:00,
2013-03-18 11:44:00,77.2,66.2,17.72,South,172,4.0,8.1,69,0.00,,,0.00,VWS V14.01,2013-03-18 15:44:00,
2013-03-18 11:49:00,77.2,66.2,17.72,SSE,163,3.6,5.8,69,0.00,,,0.00,VWS V14.01,2013-03-18 15:49:00,
2013-03-18 11:54:00,77.0,66.1,17.72,WSW,241,6.3,9.6,69,0.00,,,0.00,VWS V14.01,2013-03-18 15:54:00,
2013-03-18 11:59:00,76.8,65.9,17.72,South,182,5.4,5.8,69,0.00,,,0.00,VWS V14.01,2013-03-18 15:59:00,
2013-03-18 12:05:00,76.8,66.3,17.72,South,184,5.4,5.8,70,0.00,,,0.00,VWS V14.01,2013-03-18 16:05:00,
2013-03-18 12:10:00,76.6,66.1,17.72,South,181,0.0,5.8,70,0.00,,,0.00,VWS V14.01,2013-03-18 16:10:00,
2013-03-18 12:15:00,76.8,66.3,17.72,SSW,203,0.0,2.2,70,0.00,,,0.00,VWS V14.01,2013-03-18 16:15:00,
2013-03-18 12:21:00,77.4,66.4,17.72,SSE,157,3.1,5.4,69,0.00,,,0.00,VWS V14.01,2013-03-18 16:21:00,
2013-03-18 12:26:00,77.9,66.9,17.72,South,170,5.8,5.8,69,0.00,,,0.00,VWS V14.01,2013-03-18 16:26:00,
2013-03-18 12:32:00,79.0,67.1,17.72,South,185,0.0,5.4,67,0.00,,,0.00,VWS V14.01,2013-03-18 16:32:00,
2013-03-18 12:37:00,78.8,66.9,17.72,ESE,112,4.0,4.5,67,0.00,,,0.00,VWS V14.01,2013-03-18 16:37:00,
2013-03-18 12:43:00,78.4,66.6,17.72,WSW,245,3.6,3.6,67,0.00,,,0.00,VWS V14.01,2013-03-18 16:43:00,
2013-03-18 12:48:00,78.1,66.2,17.72,South,185,3.6,8.3,67,0.00,,,0.00,VWS V14.01,2013-03-18 16:48:00,
2013-03-18 12:53:00,78.4,67.0,17.72,SSE,167,5.4,6.3,68,0.00,,,0.00,VWS V14.01,2013-03-18 16:53:00,
2013-03-18 12:58:00,78.8,67.4,17.72,WSW,245,4.0,4.0,68,0.00,,,0.00,VWS V14.01,2013-03-18 16:58:00,
2013-03-18 13:03:00,79.3,67.9,17.72,SW,224,5.4,5.8,68,0.00,,,0.00,VWS V14.01,2013-03-18 17:03:00,
2013-03-18 13:08:00,79.5,67.6,17.72,WSW,239,11.0,11.0,67,0.00,,,0.00,VWS V14.01,2013-03-18 17:08:00,
2013-03-18 13:14:00,79.3,67.0,17.72,WSW,239,4.0,8.1,66,0.00,,,0.00,VWS V14.01,2013-03-18 17:14:00,
2013-03-18 13:19:00,79.0,67.1,17.72,South,173,4.0,5.8,67,0.00,,,0.00,VWS V14.01,2013-03-18 17:19:00,
2013-03-18 13:25:00,78.8,66.9,17.72,WNW,297,0.0,4.0,67,0.00,,,0.00,VWS V14.01,2013-03-18 17:25:00,
2013-03-18 13:30:00,78.6,67.2,17.72,NW,304,3.1,8.1,68,0.00,,,0.00,VWS V14.01,2013-03-18 17:30:00,
2013-03-18 13:37:00,78.6,67.6,17.72,SSW,210,5.4,6.3,69,0.00,,,0.00,VWS V14.01,2013-03-18 17:37:00,
2013-03-18 13:43:00,78.1,67.1,17.72,WNW,284,4.9,5.8,69,0.00,,,0.00,VWS V14.01,2013-03-18 17:43:00,
2013-03-18 13:48:00,77.7,66.8,17.72,WNW,295,5.4,5.4,69,0.00,,,0.00,VWS V14.01,2013-03-18 17:48:00,
2013-03-18 13:53:00,77.4,66.8,17.72,WSW,251,6.3,6.3,70,0.00,,,0.00,VWS V14.01,2013-03-18 17:53:00,
2013-03-18 13:58:00,77.0,66.9,17.72,WSW,238,3.6,10.5,71,0.00,,,0.00,VWS V14.01,2013-03-18 17:58:00,
2013-03-18 14:04:00,76.5,66.8,17.72,WNW,296,3.1,11.0,72,0.00,,,0.00,VWS V14.01,2013-03-18 18:04:00,
2013-03-18 14:09:00,76.1,67.2,17.72,West,278,4.5,8.7,74,0.00,,,0.00,VWS V14.01,2013-03-18 18:09:00,
2013-03-18 14:15:00,75.6,67.5,17.72,WNW,298,0.0,4.0,76,0.00,,,0.00,VWS V14.01,2013-03-18 18:15:00,
2013-03-18 14:21:00,75.0,68.1,17.72,WSW,246,3.6,7.6,79,0.00,,,0.00,VWS V14.01,2013-03-18 18:21:00,
2013-03-18 14:26:00,74.8,68.3,17.72,West,281,4.9,4.9,80,0.00,,,0.00,VWS V14.01,2013-03-18 18:26:00,
2013-03-18 14:31:00,74.7,68.4,17.72,SSW,207,6.3,6.3,81,0.00,,,0.00,VWS V14.01,2013-03-18 18:31:00,
2013-03-18 14:36:00,74.5,68.3,17.72,WSW,245,0.0,0.0,81,0.00,,,0.00,VWS V14.01,2013-03-18 18:36:00,
2013-03-18 14:41:00,74.3,68.4,17.72,WNW,297,4.9,4.9,82,0.00,,,0.00,VWS V14.01,2013-03-18 18:41:00,
2013-03-18 14:46:00,74.1,68.6,17.72,SW,223,5.8,6.3,83,0.00,,,0.00,VWS V14.01,2013-03-18 18:46:00,
2013-03-18 14:52:00,73.9,68.5,17.72,WSW,249,3.6,3.6,83,0.00,,,0.00,VWS V14.01,2013-03-18 18:52:00,
2013-03-18 14:57:00,73.9,68.8,17.72,SW,235,5.8,5.8,84,0.00,,,0.00,VWS V14.01,2013-03-18 18:57:00,
2013-03-18 15:02:00,73.9,69.2,17.72,SW,226,0.0,6.3,85,0.00,,,0.00,VWS V14.01,2013-03-18 19:02:00,
2013-03-18 15:07:00,74.1,69.3,17.72,West,259,4.0,5.4,85,0.00,,,0.00,VWS V14.01,2013-03-18 19:07:00,
2013-03-18 15:13:00,73.9,69.2,17.72,WSW,238,6.7,6.7,85,0.00,,,0.00,VWS V14.01,2013-03-18 19:13:00,
2013-03-18 15:18:00,73.9,69.5,17.72,WSW,251,4.0,4.0,86,0.00,,,0.00,VWS V14.01,2013-03-18 19:18:00,
2013-03-18 15:24:00,73.8,69.3,17.72,West,265,2.2,4.9,86,0.00,,,0.00,VWS V14.01,2013-03-18 19:24:00,
2013-03-18 15:29:00,73.6,69.1,17.72,WSW,246,4.5,9.6,86,0.04,,,0.04,VWS V14.01,2013-03-18 19:29:00,
2013-03-18 15:35:00,73.4,69.0,17.72,WSW,249,6.7,6.7,86,0.04,,,0.04,VWS V14.01,2013-03-18 19:35:00,
2013-03-18 15:41:00,73.0,68.9,17.72,WSW,258,5.4,8.1,87,0.04,,,0.04,VWS V14.01,2013-03-18 19:41:00,
2013-03-18 15:46:00,72.9,68.8,17.72,West,263,8.1,8.1,87,0.04,,,0.04,VWS V14.01,2013-03-18 19:46:00,
2013-03-18 15:51:00,72.7,68.6,17.72,South,185,5.8,8.1,87,0.04,,,0.04,VWS V14.01,2013-03-18 19:51:00,
2013-03-18 15:57:00,72.5,68.8,17.72,West,262,3.6,8.3,88,0.04,,,0.04,VWS V14.01,2013-03-18 19:57:00,
2013-03-18 16:02:00,72.3,68.6,17.72,WSW,251,4.0,8.7,88,0.08,,,0.08,VWS V14.01,2013-03-18 20:02:00,
2013-03-18 16:07:00,72.1,68.4,17.72,SW,230,6.3,11.0,88,0.08,,,0.08,VWS V14.01,2013-03-18 20:07:00,
2013-03-18 16:13:00,71.8,68.4,17.72,SSW,208,2.2,11.0,89,0.08,,,0.08,VWS V14.01,2013-03-18 20:13:00,
2013-03-18 16:18:00,71.6,68.2,17.72,West,265,4.0,8.1,89,0.12,,,0.12,VWS V14.01,2013-03-18 20:18:00,
2013-03-18 16:24:00,71.2,67.8,17.72,West,273,5.4,7.6,89,0.12,,,0.12,VWS V14.01,2013-03-18 20:24:00,
2013-03-18 16:29:00,70.9,67.5,17.72,West,271,7.2,8.7,89,0.12,,,0.16,VWS V14.01,2013-03-18 20:29:00,
2013-03-18 16:34:00,70.5,67.1,17.72,WNW,290,5.8,7.6,89,0.12,,,0.16,VWS V14.01,2013-03-18 20:34:00,
2013-03-18 16:39:00,70.3,66.9,17.72,WNW,287,3.1,5.4,89,0.12,,,0.16,VWS V14.01,2013-03-18 20:39:00,
2013-03-18 16:45:00,70.3,66.9,17.72,WSW,256,6.3,6.3,89,0.12,,,0.16,VWS V14.01,2013-03-18 20:45:00,
2013-03-18 16:50:00,70.2,66.8,17.72,West,264,5.4,5.4,89,0.12,,,0.16,VWS V14.01,2013-03-18 20:50:00,
2013-03-18 16:55:00,70.2,66.8,17.72,SW,226,4.0,5.8,89,0.12,,,0.16,VWS V14.01,2013-03-18 20:55:00,
2013-03-18 17:00:00,70.2,66.8,17.72,SW,226,3.6,3.6,89,0.08,,,0.16,VWS V14.01,2013-03-18 21:00:00,
2013-03-18 17:05:00,70.2,66.8,17.72,SW,233,0.0,2.7,89,0.12,,,0.20,VWS V14.01,2013-03-18 21:05:00,
2013-03-18 17:10:00,70.0,66.9,17.72,SW,222,4.0,5.8,90,0.12,,,0.20,VWS V14.01,2013-03-18 21:10:00,
2013-03-18 17:16:00,70.0,66.9,17.72,ESE,108,2.7,5.4,90,0.12,,,0.20,VWS V14.01,2013-03-18 21:16:00,
2013-03-18 17:22:00,70.0,66.9,17.72,SSW,204,0.0,4.0,90,0.08,,,0.20,VWS V14.01,2013-03-18 21:22:00,
2013-03-18 17:27:00,70.0,66.9,17.72,WSW,245,4.9,7.6,90,0.08,,,0.20,VWS V14.01,2013-03-18 21:27:00,
2013-03-18 17:33:00,70.0,66.9,17.72,SW,225,4.9,9.2,90,0.04,,,0.20,VWS V14.01,2013-03-18 21:33:00,
2013-03-18 17:38:00,70.0,66.9,17.72,SW,223,0.0,0.0,90,0.04,,,0.20,VWS V14.01,2013-03-18 21:38:00,
2013-03-18 17:45:00,70.0,66.9,17.72,SSW,207,5.8,6.3,90,0.04,,,0.20,VWS V14.01,2013-03-18 21:45:00,
2013-03-18 17:50:00,70.0,66.9,17.72,West,279,0.0,4.0,90,0.04,,,0.20,VWS V14.01,2013-03-18 21:50:00,
2013-03-18 17:55:00,69.8,66.7,17.72,West,263,0.0,4.9,90,0.04,,,0.20,VWS V14.01,2013-03-18 21:55:00,
2013-03-18 18:01:00,69.8,66.7,17.72,SSW,207,0.0,0.0,90,0.04,,,0.20,VWS V14.01,2013-03-18 22:01:00,
2013-03-18 18:06:00,69.8,66.7,17.72,SW,220,0.0,2.2,90,0.00,,,0.20,VWS V14.01,2013-03-18 22:06:00,
2013-03-18 18:11:00,69.8,66.7,17.72,WSW,252,0.0,0.0,90,0.00,,,0.20,VWS V14.01,2013-03-18 22:11:00,
2013-03-18 18:17:00,69.6,66.6,17.72,SW,224,0.0,0.0,90,0.00,,,0.20,VWS V14.01,2013-03-18 22:17:00,
2013-03-18 18:23:00,69.6,66.6,17.72,WSW,241,0.0,0.0,90,0.00,,,0.20,VWS V14.01,2013-03-18 22:23:00,
2013-03-18 18:29:00,69.6,66.6,17.72,SSW,204,3.6,5.4,90,0.00,,,0.20,VWS V14.01,2013-03-18 22:29:00,
2013-03-18 18:34:00,69.6,66.6,17.72,South,184,0.0,0.0,90,0.00,,,0.20,VWS V14.01,2013-03-18 22:34:00,
2013-03-18 18:39:00,69.4,66.4,17.72,South,186,4.5,4.5,90,0.00,,,0.20,VWS V14.01,2013-03-18 22:39:00,
2013-03-18 18:44:00,69.4,66.4,17.72,South,184,0.0,0.0,90,0.00,,,0.20,VWS V14.01,2013-03-18 22:44:00,
2013-03-18 18:49:00,69.4,66.4,17.72,ESE,112,2.7,4.9,90,0.00,,,0.20,VWS V14.01,2013-03-18 22:49:00,
2013-03-18 18:54:00,69.3,66.5,17.72,South,179,0.0,0.0,91,0.00,,,0.20,VWS V14.01,2013-03-18 22:54:00,
2013-03-18 19:00:00,69.3,66.5,17.72,SE,146,3.6,4.0,91,0.00,,,0.20,VWS V14.01,2013-03-18 23:00:00,
2013-03-18 19:07:00,69.1,66.3,17.72,SE,126,3.1,3.6,91,0.00,,,0.20,VWS V14.01,2013-03-18 23:07:00,
2013-03-18 19:12:00,69.1,66.3,17.72,SSW,205,0.0,3.6,91,0.00,,,0.20,VWS V14.01,2013-03-18 23:12:00,
2013-03-18 19:18:00,69.1,66.3,17.72,East,92,0.0,0.0,91,0.00,,,0.20,VWS V14.01,2013-03-18 23:18:00,
2013-03-18 19:23:00,68.9,66.2,17.72,ESE,104,4.0,6.3,91,0.00,,,0.20,VWS V14.01,2013-03-18 23:23:00,
2013-03-18 19:29:00,68.9,66.2,17.72,East,99,2.7,4.9,91,0.00,,,0.20,VWS V14.01,2013-03-18 23:29:00,
2013-03-18 19:34:00,68.7,66.0,17.72,ESE,102,4.9,5.4,91,0.00,,,0.20,VWS V14.01,2013-03-18 23:34:00,
2013-03-18 19:40:00,68.5,65.8,17.72,East,97,4.0,5.8,91,0.00,,,0.20,VWS V14.01,2013-03-18 23:40:00,
2013-03-18 19:45:00,68.5,65.8,17.72,SSE,155,5.4,5.4,91,0.00,,,0.20,VWS V14.01,2013-03-18 23:45:00,
2013-03-18 19:51:00,68.5,65.8,17.72,ESE,102,3.1,3.1,91,0.00,,,0.20,VWS V14.01,2013-03-18 23:51:00,
2013-03-18 19:57:00,68.5,65.8,17.72,SE,138,5.4,5.4,91,0.00,,,0.20,VWS V14.01,2013-03-18 23:57:00,
2013-03-18 20:02:00,68.4,65.6,17.72,SE,131,3.6,6.3,91,0.00,,,0.20,VWS V14.01,2013-03-19 00:02:00,
2013-03-18 20:07:00,68.4,65.6,17.72,ESE,122,0.0,4.0,91,0.00,,,0.20,VWS V14.01,2013-03-19 00:07:00,
2013-03-18 20:13:00,68.4,65.6,17.72,ESE,114,4.0,5.8,91,0.00,,,0.20,VWS V14.01,2013-03-19 00:13:00,
2013-03-18 20:18:00,68.4,65.6,17.72,South,175,2.7,5.8,91,0.00,,,0.20,VWS V14.01,2013-03-19 00:18:00,
2013-03-18 20:24:00,68.4,65.6,17.72,SSW,196,0.0,5.8,91,0.00,,,0.20,VWS V14.01,2013-03-19 00:24:00,
2013-03-18 20:29:00,68.4,65.6,17.72,SSW,193,5.4,6.3,91,0.00,,,0.20,VWS V14.01,2013-03-19 00:29:00,
2013-03-18 20:35:00,68.4,65.6,17.72,South,180,0.0,0.0,91,0.00,,,0.20,VWS V14.01,2013-03-19 00:35:00,
2013-03-18 20:40:00,68.4,65.6,17.72,SE,140,4.0,4.0,91,0.00,,,0.20,VWS V14.01,2013-03-19 00:40:00,
2013-03-18 20:46:00,68.4,65.6,17.72,ESE,115,0.0,0.0,91,0.00,,,0.20,VWS V14.01,2013-03-19 00:46:00,
2013-03-18 20:52:00,68.4,65.3,17.72,SW,236,0.0,0.0,90,0.00,,,0.20,VWS V14.01,2013-03-19 00:52:00,
2013-03-18 20:58:00,68.4,65.3,17.72,WNW,292,0.0,0.0,90,0.00,,,0.20,VWS V14.01,2013-03-19 00:58:00,
2013-03-18 21:04:00,68.4,65.6,17.72,NW,308,0.0,0.0,91,0.00,,,0.20,VWS V14.01,2013-03-19 01:04:00,
2013-03-18 21:09:00,68.4,65.6,17.72,NW,308,0.0,0.0,91,0.00,,,0.20,VWS V14.01,2013-03-19 01:09:00,
2013-03-18 21:14:00,68.4,65.3,17.72,NW,308,0.0,0.0,90,0.00,,,0.20,VWS V14.01,2013-03-19 01:14:00,
2013-03-18 21:20:00,68.4,65.3,17.72,NW,307,0.0,0.0,90,0.00,,,0.20,VWS V14.01,2013-03-19 01:20:00,
2013-03-18 21:25:00,68.4,65.3,17.72,NW,307,0.0,0.0,90,0.00,,,0.20,VWS V14.01,2013-03-19 01:25:00,
2013-03-18 21:31:00,68.4,65.3,17.72,SW,219,0.0,0.0,90,0.00,,,0.20,VWS V14.01,2013-03-19 01:31:00,
2013-03-18 21:36:00,68.4,65.3,17.72,SW,219,0.0,0.0,90,0.00,,,0.20,VWS V14.01,2013-03-19 01:36:00,
2013-03-18 21:41:00,68.2,65.1,17.72,SW,219,0.0,0.0,90,0.00,,,0.20,VWS V14.01,2013-03-19 01:41:00,
2013-03-18 21:46:00,68.2,65.1,17.72,SW,220,0.0,0.0,90,0.00,,,0.20,VWS V14.01,2013-03-19 01:46:00,
2013-03-18 21:51:00,68.2,65.1,17.72,SW,219,0.0,0.0,90,0.00,,,0.20,VWS V14.01,2013-03-19 01:51:00,
2013-03-18 21:56:00,68.2,65.5,17.72,SW,219,0.0,0.0,91,0.00,,,0.20,VWS V14.01,2013-03-19 01:56:00,
2013-03-18 22:02:00,68.2,65.5,17.72,SW,219,0.0,0.0,91,0.00,,,0.20,VWS V14.01,2013-03-19 02:02:00,
2013-03-18 22:08:00,68.2,65.1,17.72,SW,219,0.0,0.0,90,0.00,,,0.20,VWS V14.01,2013-03-19 02:08:00,
2013-03-18 22:14:00,68.2,65.5,17.72,SW,219,0.0,0.0,91,0.00,,,0.20,VWS V14.01,2013-03-19 02:14:00,
2013-03-18 22:19:00,68.2,65.5,17.72,SW,219,0.0,0.0,91,0.00,,,0.20,VWS V14.01,2013-03-19 02:19:00,
2013-03-18 22:24:00,68.0,65.3,17.72,SW,219,0.0,0.0,91,0.00,,,0.20,VWS V14.01,2013-03-19 02:24:00,
2013-03-18 22:29:00,68.0,65.3,17.72,SW,219,0.0,0.0,91,0.00,,,0.20,VWS V14.01,2013-03-19 02:29:00,
2013-03-18 22:35:00,67.8,65.4,17.72,SW,220,0.0,0.0,92,0.00,,,0.20,VWS V14.01,2013-03-19 02:35:00,
2013-03-18 22:41:00,67.8,65.4,17.72,SW,220,0.0,0.0,92,0.00,,,0.20,VWS V14.01,2013-03-19 02:41:00,
2013-03-18 22:46:00,68.0,65.3,17.72,SW,219,0.0,0.0,91,0.00,,,0.20,VWS V14.01,2013-03-19 02:46:00,
2013-03-18 22:51:00,67.8,65.4,17.72,SW,219,0.0,0.0,92,0.00,,,0.20,VWS V14.01,2013-03-19 02:51:00,
2013-03-18 22:56:00,67.8,65.4,17.72,SW,219,0.0,0.0,92,0.00,,,0.20,VWS V14.01,2013-03-19 02:56:00,
2013-03-18 23:02:00,67.8,65.4,17.72,SW,219,0.0,0.0,92,0.00,,,0.20,VWS V14.01,2013-03-19 03:02:00,
2013-03-18 23:07:00,67.8,65.4,17.72,SW,219,0.0,0.0,92,0.00,,,0.20,VWS V14.01,2013-03-19 03:07:00,
2013-03-18 23:12:00,67.8,65.4,17.72,SW,219,0.0,0.0,92,0.00,,,0.20,VWS V14.01,2013-03-19 03:12:00,
2013-03-18 23:17:00,67.6,65.2,17.72,SW,219,0.0,0.0,92,0.00,,,0.20,VWS V14.01,2013-03-19 03:17:00,
2013-03-18 23:22:00,67.6,65.2,17.72,SW,219,0.0,0.0,92,0.00,,,0.20,VWS V14.01,2013-03-19 03:22:00,
2013-03-18 23:27:00,67.6,65.2,17.72,SW,219,0.0,0.0,92,0.00,,,0.20,VWS V14.01,2013-03-19 03:27:00,
2013-03-18 23:32:00,67.6,65.2,17.72,SW,220,0.0,0.0,92,0.00,,,0.20,VWS V14.01,2013-03-19 03:32:00,
2013-03-18 23:38:00,67.6,65.2,17.72,West,273,0.0,0.0,92,0.00,,,0.20,VWS V14.01,2013-03-19 03:38:00,
2013-03-18 23:43:00,67.6,65.2,17.72,West,273,0.0,0.0,92,0.00,,,0.20,VWS V14.01,2013-03-19 03:43:00,
2013-03-18 23:49:00,67.6,65.2,17.72,West,273,0.0,0.0,92,0.00,,,0.20,VWS V14.01,2013-03-19 03:49:00,
2013-03-18 23:55:00,67.6,65.2,17.72,West,273,2.2,3.6,92,0.00,,,0.20,VWS V14.01,2013-03-19 03:55:00,